createdAt,value
2023-04-16T00:06:05.130Z,16.8
2023-04-16T00:08:07.075Z,16.8
2023-04-16T00:10:09.065Z,16.9
2023-04-16T00:12:11.058Z,17.9
2023-04-16T00:14:13.017Z,19.1
2023-04-16T00:16:15.012Z,18
2023-04-16T00:18:16.988Z,17.1
2023-04-16T00:24:25.961Z,19
2023-04-16T00:29:32.434Z,18.2
2023-04-16T00:33:39.446Z,21.4
2023-04-16T00:35:41.408Z,19.3
2023-04-16T00:39:45.379Z,20.4
2023-04-16T00:41:47.334Z,17.9
2023-04-16T00:43:49.321Z,19
2023-04-16T00:45:51.337Z,19
2023-04-16T00:47:57.155Z,21.4
2023-04-16T00:49:58.304Z,22.2
2023-04-16T00:52:00.303Z,22.3
2023-04-16T00:54:02.278Z,22.3
2023-04-16T00:56:04.241Z,19.3
2023-04-16T00:58:06.252Z,19.9
2023-04-16T01:00:08.225Z,20.6
2023-04-16T01:02:13.281Z,19.8
2023-04-16T01:04:15.351Z,22.3
2023-04-16T01:06:17.204Z,24.2
2023-04-16T01:08:19.188Z,21
2023-04-16T01:10:21.188Z,20.2
2023-04-16T01:12:23.146Z,22.8
2023-04-16T01:14:25.126Z,21.2
2023-04-16T01:16:30.302Z,21.7
2023-04-16T01:18:32.126Z,20.6
2023-04-16T01:20:35.004Z,22.9
2023-04-16T01:21:36.627Z,25.9
2023-04-16T01:23:38.607Z,25
2023-04-16T01:25:40.634Z,21.6
2023-04-16T01:27:42.581Z,24
2023-04-16T01:31:49.679Z,26.7
2023-04-16T01:33:51.541Z,24.3
2023-04-16T01:35:53.523Z,25
2023-04-16T01:39:57.509Z,25.3
2023-04-16T01:44:04.517Z,27.1
2023-04-16T01:48:08.458Z,26.4
2023-04-16T01:54:14.399Z,26.7
2023-04-16T01:56:16.402Z,23
2023-04-16T01:58:21.431Z,25
2023-04-16T02:00:23.389Z,29.3
2023-04-16T02:08:31.312Z,30.8
2023-04-16T02:12:39.156Z,31.1
2023-04-16T02:14:41.171Z,27.1
2023-04-16T02:16:43.169Z,29.1
2023-04-16T02:17:45.649Z,34
2023-04-16T02:19:47.587Z,32.4
2023-04-16T02:34:04.464Z,29.2
2023-04-16T02:36:06.407Z,30
2023-04-16T02:38:08.389Z,28.4
2023-04-16T02:40:13.415Z,30
2023-04-16T02:42:15.408Z,32.6
2023-04-16T02:44:17.378Z,29.9
2023-04-16T02:48:21.296Z,31.6
2023-04-16T02:54:30.295Z,32.7
2023-04-16T02:56:32.273Z,33.5
2023-04-16T02:58:34.247Z,29.5
2023-04-16T03:00:36.211Z,34.8
2023-04-16T03:04:40.199Z,31.5
2023-04-16T03:06:42.136Z,30.3
2023-04-16T03:08:47.171Z,33.5
2023-04-16T03:10:49.156Z,34.4
2023-04-16T03:12:51.119Z,34.1
2023-04-16T03:17:10.102Z,34.7
2023-04-16T03:19:12.271Z,31.8
2023-04-16T03:21:17.136Z,35.7
2023-04-16T03:23:19.074Z,32.1
2023-04-16T03:29:24.997Z,34.5
2023-04-16T03:31:27.051Z,33.4
2023-04-16T03:35:34.000Z,35.5
2023-04-16T03:37:35.968Z,35.1
2023-04-16T03:39:37.935Z,34.6
2023-04-16T03:41:39.914Z,32.5
2023-04-16T03:43:41.897Z,36.6
2023-04-16T03:45:43.831Z,33.6
2023-04-16T03:47:45.868Z,34.8
2023-04-16T03:49:50.867Z,41.8
2023-04-16T03:51:52.806Z,34.5
2023-04-16T03:53:54.816Z,36
2023-04-16T03:55:56.765Z,38.5
2023-04-16T03:57:58.749Z,35.1
2023-04-16T04:00:00.737Z,37.7
2023-04-16T04:02:02.823Z,38.3
2023-04-16T04:06:09.695Z,37.6
2023-04-16T04:08:11.678Z,39
2023-04-16T04:09:14.173Z,44.4
2023-04-16T04:11:16.135Z,35.7
2023-04-16T04:13:18.148Z,38.9
2023-04-16T04:15:20.113Z,38.8
2023-04-16T04:17:25.148Z,39.4
2023-04-16T04:19:27.114Z,38.3
2023-04-16T04:23:31.049Z,37.7
2023-04-16T04:25:33.048Z,35.6
2023-04-16T04:29:36.967Z,35.4
2023-04-16T04:39:49.873Z,35.3
2023-04-16T04:41:52.525Z,38.7
2023-04-16T04:43:54.505Z,31.5
2023-04-16T04:45:59.517Z,37.7
2023-04-16T04:48:01.568Z,36
2023-04-16T04:50:03.470Z,34.6
2023-04-16T04:52:05.428Z,35.4
2023-04-16T04:54:07.405Z,36.4
2023-04-16T04:56:12.815Z,32.7
2023-04-16T05:02:19.927Z,36.4
2023-04-16T05:11:30.285Z,35.2
2023-04-16T05:13:35.311Z,38.1
2023-04-16T05:15:37.246Z,33.9
2023-04-16T05:17:39.296Z,35.6
2023-04-16T05:19:41.225Z,36.5
2023-04-16T05:21:43.193Z,37.4
2023-04-16T05:23:45.151Z,38.6
2023-04-16T05:25:47.127Z,41.2
2023-04-16T05:27:52.187Z,41.9
2023-04-16T05:29:54.157Z,35.7
2023-04-16T05:31:56.124Z,40.9
2023-04-16T05:33:58.115Z,36.2
2023-04-16T05:36:00.135Z,40.1
2023-04-16T05:38:02.059Z,37.1
2023-04-16T05:40:04.041Z,41.1
2023-04-16T05:42:09.047Z,41.7
2023-04-16T05:44:11.015Z,41.9
2023-04-16T05:46:13.035Z,39.9
2023-04-16T05:48:14.963Z,40.7
2023-04-16T05:52:18.927Z,38.8
2023-04-16T05:56:25.928Z,43.3
2023-04-16T05:58:27.896Z,41
2023-04-16T06:03:34.430Z,39.5
2023-04-16T06:05:36.532Z,40.7
2023-04-16T06:13:47.301Z,42.7
2023-04-16T06:15:49.340Z,42.4
2023-04-16T06:21:55.235Z,43.2
2023-04-16T06:24:00.251Z,44
2023-04-16T06:26:02.232Z,42
2023-04-16T06:28:04.221Z,42.9
2023-04-16T06:30:06.193Z,38.5
2023-04-16T06:32:08.203Z,39
2023-04-16T06:34:10.174Z,42.4
2023-04-16T06:36:12.124Z,41.1
2023-04-16T06:38:17.189Z,41.1
2023-04-16T06:40:19.132Z,43.3
2023-04-16T06:42:21.184Z,42.5
2023-04-16T06:44:23.138Z,42.2
2023-04-16T06:46:25.134Z,40
2023-04-16T06:48:27.087Z,41.2
2023-04-16T06:52:34.077Z,41.8
2023-04-16T06:54:36.056Z,39.4
2023-04-16T06:56:38.049Z,44.6
2023-04-16T06:59:00.676Z,39.5
2023-04-16T07:01:02.709Z,38.6
2023-04-16T07:03:04.718Z,42.2
2023-04-16T07:05:09.647Z,41.3
2023-04-16T07:07:11.630Z,41.3
2023-04-16T07:09:13.583Z,41.6
2023-04-16T07:11:15.572Z,40.8
2023-04-16T07:13:17.581Z,42.8
2023-04-16T07:17:21.529Z,42.1
2023-04-16T07:19:26.549Z,43.2
2023-04-16T07:23:30.524Z,42.5
2023-04-16T07:25:32.778Z,45.7
2023-04-16T07:27:34.480Z,37.6
2023-04-16T07:29:36.452Z,41.7
2023-04-16T07:31:38.518Z,44
2023-04-16T07:33:43.496Z,41.3
2023-04-16T07:35:45.460Z,41.1
2023-04-16T07:37:47.427Z,44.5
2023-04-16T07:39:49.434Z,41
2023-04-16T07:41:51.408Z,40.2
2023-04-16T07:43:53.406Z,37.8
2023-04-16T07:45:55.422Z,43.1
2023-04-16T07:48:00.458Z,43
2023-04-16T07:50:02.412Z,41.7
2023-04-16T07:52:04.383Z,43
2023-04-16T07:53:06.903Z,40.7
2023-04-16T07:57:10.868Z,38.5
2023-04-16T07:59:22.148Z,41.4
2023-04-16T08:01:17.896Z,39.5
2023-04-16T08:03:20.079Z,37.2
2023-04-16T08:05:21.976Z,38.6
2023-04-16T08:09:25.846Z,40.4
2023-04-16T08:11:27.785Z,42.7
2023-04-16T08:13:31.223Z,41.7
2023-04-16T08:15:34.870Z,46.5
2023-04-16T08:19:38.827Z,40.5
2023-04-16T08:23:42.770Z,35.9
2023-04-16T08:25:44.757Z,39.9
2023-04-16T08:27:46.732Z,43.3
2023-04-16T08:29:51.764Z,44.1
2023-04-16T08:31:53.829Z,38.6
2023-04-16T08:33:55.754Z,41.7
2023-04-16T08:35:57.725Z,40.8
2023-04-16T08:42:03.691Z,34.2
2023-04-16T08:44:08.746Z,41.3
2023-04-16T08:46:10.755Z,35.2
2023-04-16T08:48:12.709Z,34.5
2023-04-16T08:49:15.214Z,38.5
2023-04-16T08:53:19.195Z,34.5
2023-04-16T09:01:30.226Z,31.6
2023-04-16T09:03:34.826Z,34.2
2023-04-16T09:07:36.183Z,31.3
2023-04-16T09:09:38.154Z,32.3
2023-04-16T09:11:43.185Z,31.9
2023-04-16T09:19:51.150Z,30.5
2023-04-16T09:21:53.140Z,27.7
2023-04-16T09:26:00.176Z,29
2023-04-16T09:32:06.155Z,31.8
2023-04-16T09:34:08.148Z,28.4
2023-04-16T09:36:10.105Z,29.5
2023-04-16T09:38:12.120Z,25.6
2023-04-16T09:40:17.176Z,28.8
2023-04-16T09:42:19.146Z,26.4
2023-04-16T09:45:23.695Z,26.2
2023-04-16T09:47:25.687Z,28.2
2023-04-16T09:49:27.635Z,27.3
2023-04-16T09:51:29.637Z,23.9
2023-04-16T09:53:34.681Z,26.1
2023-04-16T09:55:36.665Z,28.1
2023-04-16T10:05:46.600Z,24.5
2023-04-16T10:09:53.627Z,24.2
2023-04-16T10:15:59.590Z,25
2023-04-16T10:22:08.594Z,23.1
2023-04-16T10:24:10.566Z,22.6
2023-04-16T10:26:12.569Z,22.5
2023-04-16T10:28:14.525Z,21.9
2023-04-16T10:30:16.537Z,26.2
2023-04-16T10:32:18.673Z,22.1
2023-04-16T10:38:27.520Z,24.8
2023-04-16T10:44:54.309Z,21.6
2023-04-16T10:49:02.767Z,24.3
2023-04-16T10:57:10.719Z,23.7
2023-04-16T11:07:23.647Z,23.7
2023-04-16T11:09:25.612Z,21.3
2023-04-16T11:27:46.494Z,21.4
2023-04-16T11:29:48.465Z,20.7
2023-04-16T11:31:53.487Z,19.6
2023-04-16T11:35:57.433Z,19.9
2023-04-16T11:36:59.956Z,18.5
2023-04-16T11:39:01.925Z,17
2023-04-16T11:41:03.899Z,19.2
2023-04-16T11:43:05.864Z,18.7
2023-04-16T11:57:22.729Z,19.1
2023-04-16T11:59:27.777Z,18.6
2023-04-16T12:01:29.750Z,18.9
2023-04-16T12:03:31.890Z,21.7
2023-04-16T12:05:35.942Z,19.7
2023-04-16T12:09:40.181Z,19.6
2023-04-16T12:11:39.603Z,19.6
2023-04-16T12:13:44.610Z,19.2
2023-04-16T12:15:46.610Z,19
2023-04-16T12:17:48.659Z,19.3
2023-04-16T12:19:50.540Z,17.3
2023-04-16T12:21:52.506Z,19.7
2023-04-16T12:23:54.495Z,18.3
2023-04-16T12:25:56.464Z,18.7
2023-04-16T12:28:01.580Z,20
2023-04-16T12:30:03.487Z,18.1
2023-04-16T12:32:05.454Z,18.9
2023-04-16T12:33:08.071Z,19.1
2023-04-16T12:39:13.905Z,18.6
2023-04-16T12:41:18.956Z,18.9
2023-04-16T12:43:20.905Z,17.1
2023-04-16T12:45:22.889Z,19.3
2023-04-16T12:47:24.879Z,17.8
2023-04-16T12:49:26.816Z,18.5
2023-04-16T12:51:28.810Z,18.7
2023-04-16T12:53:30.766Z,18.6
2023-04-16T13:07:47.673Z,19.3
2023-04-16T13:09:52.705Z,18.2
2023-04-16T13:11:54.677Z,19.4
2023-04-16T13:15:58.649Z,18.5
2023-04-16T13:18:00.652Z,17.1
2023-04-16T13:26:11.551Z,17.2
2023-04-16T13:28:13.543Z,17.6
2023-04-16T13:29:16.044Z,17.1
2023-04-16T13:31:18.067Z,16.7
2023-04-16T13:33:19.991Z,17.8
2023-04-16T13:35:21.975Z,20.5
2023-04-16T13:37:27.019Z,17.5
2023-04-16T13:39:29.022Z,16.2
2023-04-16T13:41:30.968Z,17.3
2023-04-16T13:43:32.938Z,16.5
2023-04-16T13:45:34.904Z,17.9
2023-04-16T13:49:38.881Z,17.2
2023-04-16T13:51:43.926Z,17.5
2023-04-16T13:53:45.899Z,17
2023-04-16T13:55:47.874Z,17.9
2023-04-16T13:59:51.832Z,15.4
2023-04-16T14:06:00.838Z,15.8
2023-04-16T14:12:06.780Z,16.2
2023-04-16T14:14:08.760Z,16.7
2023-04-16T14:18:12.742Z,17.8
2023-04-16T14:22:19.831Z,17.1
2023-04-16T14:26:38.825Z,19.8
2023-04-16T14:28:40.790Z,17.5
2023-04-16T14:32:47.874Z,16
2023-04-16T14:36:51.775Z,16.2
2023-04-16T14:38:53.779Z,15.9
2023-04-16T14:40:55.743Z,14.2
2023-04-16T14:42:57.730Z,17.7
2023-04-16T14:44:59.694Z,14.7
2023-04-16T14:53:10.704Z,18.6
2023-04-16T15:13:33.587Z,15.7
2023-04-16T15:20:45.114Z,16.8
2023-04-16T15:22:47.134Z,15.7
2023-04-16T15:24:49.081Z,15.8
2023-04-16T15:26:51.063Z,14.9
2023-04-16T15:28:56.132Z,18.9
2023-04-16T15:30:58.135Z,15.9
2023-04-16T15:33:00.165Z,16.7
2023-04-16T15:35:02.106Z,16.6
2023-04-16T15:37:04.060Z,17.1
2023-04-16T15:39:06.061Z,17.7
2023-04-16T15:41:08.028Z,16.7
2023-04-16T15:47:17.092Z,16.5
2023-04-16T15:51:21.053Z,16.8
2023-04-16T16:01:34.067Z,17.9
2023-04-16T16:03:36.209Z,17.1
2023-04-16T16:05:38.036Z,17
2023-04-16T16:09:42.005Z,17.5
2023-04-16T16:11:47.064Z,16.7
2023-04-16T16:13:49.056Z,23.5
2023-04-16T16:15:51.145Z,17.3
2023-04-16T16:16:53.557Z,18
2023-04-16T16:20:57.560Z,18.6
2023-04-16T16:22:59.533Z,19
2023-04-16T16:27:06.567Z,19.1
2023-04-16T16:31:10.624Z,19.6
2023-04-16T16:33:12.557Z,21.8
2023-04-16T16:43:27.056Z,20.5
2023-04-16T16:45:29.460Z,19.4
2023-04-16T16:49:33.065Z,19.4
2023-04-16T16:51:35.062Z,20.4
2023-04-16T16:53:40.101Z,20.2
2023-04-16T16:55:42.096Z,19.5
2023-04-16T16:57:44.084Z,23.4
2023-04-16T16:59:46.097Z,23.1
2023-04-16T17:01:48.092Z,19.8
2023-04-16T17:03:50.213Z,20.6
2023-04-16T17:05:52.073Z,22.5
2023-04-16T17:07:57.124Z,23.4
2023-04-16T17:10:01.369Z,22.9
2023-04-16T17:12:01.110Z,20
2023-04-16T17:13:03.649Z,23.4
2023-04-16T17:15:05.637Z,21.7
2023-04-16T17:17:07.622Z,19.6
2023-04-16T17:19:09.881Z,20.8
2023-04-16T17:21:16.489Z,22.7
2023-04-16T17:23:16.688Z,21.5
2023-04-16T17:25:18.667Z,22.6
2023-04-16T17:27:20.654Z,22.6
2023-04-16T17:29:22.630Z,23
2023-04-16T17:31:26.697Z,22.1
2023-04-16T17:33:26.630Z,20.1
2023-04-16T17:35:31.672Z,20.3
2023-04-16T17:37:33.658Z,22.2
2023-04-16T17:39:35.698Z,20.9
2023-04-16T17:41:37.670Z,22.8
2023-04-16T17:43:39.644Z,22.4
2023-04-16T17:45:41.695Z,20.7
2023-04-16T17:47:43.703Z,23.4
2023-04-16T17:49:48.700Z,23.9
2023-04-16T17:51:50.699Z,21.5
2023-04-16T17:53:52.684Z,23.7
2023-04-16T17:55:56.704Z,23
2023-04-16T17:59:58.689Z,23.6
2023-04-16T18:02:00.778Z,25.3
2023-04-16T18:04:06.027Z,26
2023-04-16T18:06:07.728Z,24.5
2023-04-16T18:10:33.106Z,24.5
2023-04-16T18:12:34.348Z,24.4
2023-04-16T18:14:36.333Z,26.5
2023-04-16T18:28:53.315Z,26.8
2023-04-16T18:30:59.185Z,44.7
2023-04-16T18:33:33.632Z,28.6
2023-04-16T18:37:04.354Z,33.8
2023-04-16T18:39:06.370Z,33.8
2023-04-16T18:41:08.313Z,34.7
2023-04-16T18:47:17.352Z,34.7
2023-04-16T18:49:19.338Z,27.4
2023-04-16T18:51:21.355Z,31.5
2023-04-16T18:57:27.312Z,27.9
2023-04-16T18:59:32.380Z,28.6
2023-04-16T19:01:34.368Z,28.1
2023-04-16T19:03:36.604Z,27.8
2023-04-16T19:08:42.865Z,30.1
2023-04-16T19:10:44.854Z,31.5
2023-04-16T19:12:49.919Z,32
2023-04-16T19:14:51.889Z,30
2023-04-16T19:16:53.897Z,27.3
2023-04-16T19:20:57.871Z,31.8
2023-04-16T19:27:06.943Z,30.2
2023-04-16T19:31:10.945Z,31
2023-04-16T19:33:12.885Z,31.1
2023-04-16T19:35:14.877Z,29.1
2023-04-16T19:37:16.857Z,28.7
2023-04-16T19:39:18.859Z,29.8
2023-04-16T19:41:23.898Z,32
2023-04-16T19:47:29.900Z,28.5
2023-04-16T19:49:33.754Z,30.8
2023-04-16T19:53:35.854Z,29
2023-04-16T19:55:40.902Z,29.4
2023-04-16T19:57:42.893Z,30.3
2023-04-16T19:59:44.886Z,29.9
2023-04-16T20:00:47.437Z,28.7
2023-04-16T20:02:49.629Z,29.9
2023-04-16T20:11:00.438Z,29.9
2023-04-16T20:23:15.429Z,31.8
2023-04-16T20:27:19.432Z,29.4
2023-04-16T20:31:23.532Z,30.2
2023-04-16T20:33:25.396Z,29.5
2023-04-16T20:35:27.400Z,28.3
2023-04-16T20:37:32.445Z,29
2023-04-16T20:39:34.449Z,32.9
2023-04-16T20:41:36.425Z,28.4
2023-04-16T20:43:38.501Z,32.1
2023-04-16T20:45:40.375Z,32.3
2023-04-16T20:47:42.430Z,29.7
2023-04-16T20:49:44.349Z,30.8
2023-04-16T20:51:49.405Z,27.9
2023-04-16T20:53:51.406Z,28.6
2023-04-16T20:55:53.389Z,33.5
2023-04-16T20:56:55.908Z,30.5
2023-04-16T21:03:02.020Z,29
2023-04-16T21:05:06.911Z,31
2023-04-16T21:11:12.872Z,30.6
2023-04-16T21:13:14.928Z,31.9
2023-04-16T21:15:16.880Z,31.1
2023-04-16T21:17:18.915Z,31.9
2023-04-16T21:19:23.905Z,34.1
2023-04-16T21:21:25.899Z,32.1
2023-04-16T21:23:27.880Z,34.4
2023-04-16T21:25:29.859Z,36.5
2023-04-16T21:29:33.850Z,34.6
2023-04-16T21:31:35.892Z,33.9
2023-04-16T21:33:40.891Z,35.2
2023-04-16T21:35:42.874Z,35.8
2023-04-16T21:37:44.833Z,34.9
2023-04-16T21:39:46.821Z,31.9
2023-04-16T21:41:48.849Z,34.3
2023-04-16T21:43:50.792Z,33.5
2023-04-16T21:45:52.793Z,35.9
2023-04-16T21:47:57.880Z,38
2023-04-16T21:49:59.805Z,35.3
2023-04-16T21:52:01.817Z,34.9
2023-04-16T22:08:41.295Z,34.1
2023-04-16T22:10:43.293Z,36.5
2023-04-16T22:12:45.276Z,36.8
2023-04-16T22:15:01.871Z,37.4
2023-04-16T22:20:56.282Z,36.7
2023-04-16T22:25:00.240Z,34.1
2023-04-16T22:29:07.227Z,39.1
2023-04-16T22:31:10.752Z,36.2
2023-04-16T22:33:12.789Z,34.7
2023-04-16T22:35:14.650Z,36.4
2023-04-16T22:37:16.642Z,35.1
2023-04-16T22:39:18.631Z,35.8
2023-04-16T22:41:20.603Z,38.4
2023-04-16T22:43:25.671Z,38.2
2023-04-16T22:45:27.637Z,37.3
2023-04-16T22:47:29.632Z,34.7
2023-04-16T22:48:32.111Z,39
2023-04-16T22:50:34.092Z,36.1
2023-04-16T22:54:38.064Z,35.2
2023-04-16T22:58:45.087Z,37
2023-04-16T23:15:04.023Z,38.3
2023-04-16T23:21:09.935Z,39.8
2023-04-16T23:23:11.946Z,35.7
2023-04-16T23:27:18.940Z,36.7
2023-04-16T23:29:20.916Z,33.2
2023-04-16T23:31:22.950Z,37.8
2023-04-16T23:33:25.665Z,36.4
2023-04-16T23:35:26.850Z,35.9
2023-04-16T23:37:28.840Z,34.7
2023-04-16T23:39:33.882Z,37.2
2023-04-16T23:41:35.822Z,36
2023-04-16T23:43:38.579Z,32.9
2023-04-16T23:44:40.336Z,33.8
2023-04-16T23:46:42.427Z,33.9
2023-04-16T23:48:44.285Z,31.5
2023-04-16T23:50:46.283Z,32.5
2023-04-16T23:54:53.269Z,31.5
2023-04-16T23:56:55.275Z,30.4
2023-04-16T23:58:57.694Z,33.9
